Time;durP1;ratioP1;P1;durP2;ratioP2;P2;SDS_P1;SDS_P2;PMS_P1;PMS_P2;Temp;Humidity;BMP_temperature;BMP_pressure;BME280_temperature;BME280_humidity;BME280_pressure;Samples;Min_cycle;Max_cycle;Signal;HPM_P1;HPM_P2
2021/09/28 00:01:25;;;;;;;;;12.25;9.75;;;;;22.85;46.98;101019.87;146613;565;46017;-81
2021/09/28 00:03:59;;;;;;;;;10.00;10.00;;;;;22.85;46.52;101019.00;146611;589;47022;-79
2021/09/28 00:06:33;;;;;;;;;10.25;9.50;;;;;22.83;46.83;101021.62;146612;564;46016;-80
2021/09/28 00:09:07;;;;;;;;;13.00;11.75;;;;;22.77;47.45;101025.16;146620;575;45021;-80
2021/09/28 00:11:42;;;;;;;;;15.75;14.00;;;;;22.72;48.43;101015.41;146610;564;47010;-81
2021/09/28 00:14:16;;;;;;;;;11.25;11.25;;;;;22.68;48.29;101014.53;146615;566;45020;-80
2021/09/28 00:16:50;;;;;;;;;12.00;11.50;;;;;22.64;48.42;101006.53;146608;621;46914;-79
2021/09/28 00:19:23;;;;;;;;;9.00;9.00;;;;;22.65;48.80;101008.31;146613;617;46020;-81
2021/09/28 00:21:57;;;;;;;;;10.75;10.50;;;;;22.62;48.32;101001.25;146618;575;46010;-82
2021/09/28 00:24:31;;;;;;;;;9.75;9.75;;;;;22.57;48.94;100993.28;146615;567;46009;-83
2021/09/28 00:27:06;;;;;;;;;12.75;11.50;;;;;22.55;48.78;100988.84;146619;569;46010;-82
2021/09/28 00:29:40;;;;;;;;;12.00;12.00;;;;;22.53;48.41;100991.50;146618;616;45021;-82
2021/09/28 00:32:13;;;;;;;;;11.25;11.00;;;;;22.51;48.31;100995.00;146612;597;46010;-81
2021/09/28 00:34:47;;;;;;;;;10.50;9.00;;;;;22.50;48.77;100995.91;146613;606;46020;-82
2021/09/28 00:37:21;;;;;;;;;11.75;11.75;;;;;22.49;48.56;100999.37;146620;564;45020;-82
2021/09/28 00:39:55;;;;;;;;;8.50;8.50;;;;;22.48;48.39;101001.16;146615;590;46010;-81
2021/09/28 00:42:29;;;;;;;;;9.25;9.00;;;;;22.45;48.54;100995.84;146617;593;46010;-77
2021/09/28 00:45:03;;;;;;;;;10.75;10.75;;;;;22.41;48.08;100991.44;146623;634;45040;-77
2021/09/28 00:47:37;;;;;;;;;13.00;11.00;;;;;22.37;48.17;100981.72;146612;615;46010;-79
2021/09/28 00:50:11;;;;;;;;;9.25;8.75;;;;;22.36;48.24;100987.84;146616;586;46020;-78
2021/09/28 00:52:46;;;;;;;;;11.00;9.00;;;;;22.36;48.06;100987.84;146615;579;46017;-87
2021/09/28 00:55:27;;;;;;;;;11.00;9.75;;;;;22.36;48.21;100993.13;146619;581;46008;-86
2021/09/28 00:58:08;;;;;;;;;12.50;11.75;;;;;22.40;47.92;100997.59;146613;572;46016;-85
2021/09/28 01:00:42;;;;;;;;;11.00;10.25;;;;;22.44;48.07;100988.81;146613;614;45021;-85
2021/09/28 01:03:16;;;;;;;;;10.00;9.00;;;;;22.46;47.86;100983.50;146612;650;46016;-85
2021/09/28 01:05:50;;;;;;;;;10.25;9.50;;;;;22.42;48.50;100984.38;146620;662;46010;-86
2021/09/28 01:08:24;;;;;;;;;12.00;11.75;;;;;22.39;47.59;100979.06;146619;647;46016;-85
2021/09/28 01:11:00;;;;;;;;;11.50;11.00;;;;;22.37;47.96;100979.06;146611;576;47008;-85
2021/09/28 01:13:34;;;;;;;;;12.00;10.50;;;;;22.41;47.71;100985.25;146614;571;46029;-84
2021/09/28 01:16:13;;;;;;;;;9.00;9.00;;;;;22.45;48.09;100982.63;146617;596;45023;-86
2021/09/28 01:18:47;;;;;;;;;13.25;10.75;;;;;22.52;47.72;100986.19;146619;639;46016;-85
2021/09/28 01:21:22;;;;;;;;;14.25;9.00;;;;;22.54;47.95;100985.34;146616;682;46020;-85
2021/09/28 01:23:56;;;;;;;;;10.25;9.50;;;;;22.54;47.63;100998.56;146617;608;46017;-85
2021/09/28 01:26:30;;;;;;;;;10.25;9.25;;;;;22.55;47.51;101010.91;146613;608;46020;-84
2021/09/28 01:29:07;;;;;;;;;12.00;9.75;;;;;22.56;48.04;101003.88;146610;565;47010;-78
2021/09/28 01:31:42;;;;;;;;;10.25;9.25;;;;;22.54;48.10;101009.13;146621;585;46020;-77
2021/09/28 01:34:16;;;;;;;;;9.75;8.75;;;;;22.51;47.70;101003.81;146617;625;46016;-77
2021/09/28 01:36:51;;;;;;;;;12.00;11.00;;;;;22.47;47.85;101001.16;146618;585;46020;-77
2021/09/28 01:39:25;;;;;;;;;12.00;11.25;;;;;22.40;47.73;100991.41;146612;586;46016;-77
2021/09/28 01:41:59;;;;;;;;;11.50;9.75;;;;;22.35;47.62;101000.19;146615;583;46020;-77
2021/09/28 01:44:34;;;;;;;;;12.00;11.25;;;;;22.33;48.06;101008.97;146614;603;46017;-77
2021/09/28 01:47:09;;;;;;;;;10.50;10.00;;;;;22.33;48.14;101006.31;146615;598;46023;-77
2021/09/28 01:49:42;;;;;;;;;9.00;7.75;;;;;22.35;48.51;101015.16;146612;684;46016;-78
2021/09/28 01:52:16;;;;;;;;;12.00;10.25;;;;;22.38;48.31;101009.91;146617;655;46020;-78
2021/09/28 01:54:50;;;;;;;;;11.75;11.50;;;;;22.36;48.40;101011.62;146609;563;46016;-78
2021/09/28 01:57:24;;;;;;;;;9.25;8.00;;;;;22.29;48.64;101004.53;146613;698;46020;-83
2021/09/28 02:00:01;;;;;;;;;11.75;11.25;;;;;22.24;48.52;101008.88;146615;597;46016;-79
2021/09/28 02:02:35;;;;;;;;;13.00;12.00;;;;;22.22;48.59;101006.25;146612;631;46020;-76
2021/09/28 02:05:10;;;;;;;;;12.25;10.75;;;;;22.22;48.92;101014.19;146613;593;46010;-76
2021/09/28 02:07:44;;;;;;;;;9.00;9.00;;;;;22.26;48.53;101015.97;146612;699;46010;-73
2021/09/28 02:10:18;;;;;;;;;9.00;9.00;;;;;22.26;48.55;101018.59;146615;563;46016;-73
2021/09/28 02:12:52;;;;;;;;;11.25;10.75;;;;;22.28;48.32;101018.62;146621;580;45022;-73
2021/09/28 02:15:25;;;;;;;;;11.50;11.25;;;;;22.29;48.51;101026.56;146612;577;46010;-73
2021/09/28 02:18:00;;;;;;;;;12.50;11.50;;;;;22.31;48.48;101019.53;146613;601;46020;-74
2021/09/28 02:20:34;;;;;;;;;13.50;11.50;;;;;22.32;49.53;101020.41;146611;612;46016;-76
2021/09/28 02:23:08;;;;;;;;;12.50;11.25;;;;;22.28;49.99;101016.00;146613;582;46020;-76
2021/09/28 02:25:42;;;;;;;;;10.50;10.00;;;;;22.25;49.69;101018.59;146612;565;46016;-76
2021/09/28 02:28:16;;;;;;;;;12.00;12.00;;;;;22.26;49.78;101012.44;146612;572;46008;-76
2021/09/28 02:30:50;;;;;;;;;11.00;10.00;;;;;22.25;49.53;101011.56;146611;613;46017;-75
2021/09/28 02:33:24;;;;;;;;;12.50;11.00;;;;;22.25;49.44;101010.69;146613;732;46020;-74
2021/09/28 02:35:58;;;;;;;;;11.00;10.00;;;;;22.26;49.57;101025.66;146611;577;47914;-74
2021/09/28 02:38:32;;;;;;;;;14.25;12.75;;;;;22.22;50.30;101018.59;146611;596;46021;-75
2021/09/28 02:41:06;;;;;;;;;12.50;12.25;;;;;22.14;50.56;101015.81;146610;592;46016;-75
2021/09/28 02:43:39;;;;;;;;;12.00;11.50;;;;;22.06;50.40;101007.84;146610;567;46020;-75
2021/09/28 02:46:13;;;;;;;;;12.25;11.00;;;;;22.03;49.98;101012.22;146611;710;46016;-75
2021/09/28 02:48:47;;;;;;;;;13.25;10.00;;;;;22.00;51.18;101010.44;146612;574;47008;-75
2021/09/28 02:51:21;;;;;;;;;12.75;12.75;;;;;21.97;50.73;101002.50;146611;592;46010;-75
2021/09/28 02:53:55;;;;;;;;;15.00;10.75;;;;;21.99;50.40;100991.94;146612;602;47008;-74
2021/09/28 02:56:29;;;;;;;;;14.00;10.25;;;;;22.02;50.44;100987.56;146610;581;46016;-74
2021/09/28 02:59:03;;;;;;;;;14.00;12.00;;;;;22.05;50.37;100982.28;146610;611;47008;-74
2021/09/28 03:01:37;;;;;;;;;12.00;11.25;;;;;22.08;49.63;100973.53;146609;605;46016;-74
2021/09/28 03:04:11;;;;;;;;;11.00;11.00;;;;;22.12;49.38;100976.22;146612;599;46020;-74
2021/09/28 03:06:44;;;;;;;;;12.75;12.50;;;;;22.19;49.40;100984.22;146614;569;45017;-73
2021/09/28 03:09:19;;;;;;;;;11.50;10.75;;;;;22.26;49.65;100988.66;146608;613;47008;-74
2021/09/28 03:11:52;;;;;;;;;12.75;12.00;;;;;22.32;48.90;100983.44;146612;624;46016;-74
2021/09/28 03:14:27;;;;;;;;;12.00;12.00;;;;;22.39;49.48;100984.34;146612;615;46025;-74
2021/09/28 03:17:01;;;;;;;;;12.50;11.25;;;;;22.47;49.11;100987.94;146612;614;46016;-74
2021/09/28 03:19:35;;;;;;;;;13.75;13.00;;;;;22.52;49.46;100986.19;146613;569;46008;-74
2021/09/28 03:22:09;;;;;;;;;10.75;10.50;;;;;22.54;49.12;100990.63;146608;575;47914;-74
2021/09/28 03:24:46;;;;;;;;;12.00;11.00;;;;;22.55;49.53;100991.50;146611;600;47008;-74
2021/09/28 03:27:20;;;;;;;;;13.50;11.75;;;;;22.54;49.56;100998.56;146609;586;47010;-74
2021/09/28 03:29:53;;;;;;;;;13.00;12.50;;;;;22.55;50.32;100996.78;146612;564;46008;-74
2021/09/28 03:32:27;;;;;;;;;12.00;11.00;;;;;22.57;51.31;100987.13;146610;612;46016;-74
2021/09/28 03:35:01;;;;;;;;;15.75;13.75;;;;;22.57;51.91;100985.34;146610;569;46021;-74
2021/09/28 03:37:35;;;;;;;;;12.75;11.50;;;;;22.54;52.32;100985.34;146611;720;46016;-74
2021/09/28 03:40:12;;;;;;;;;12.00;12.00;;;;;22.52;52.33;100987.09;146614;629;47008;-74
2021/09/28 03:42:46;;;;;;;;;11.50;11.50;;;;;22.47;53.03;100978.25;146610;646;46017;-74
2021/09/28 03:45:20;;;;;;;;;14.75;12.25;;;;;22.07;53.46;100908.37;146612;631;46008;-74
2021/09/28 03:47:54;;;;;;;;;15.00;13.50;;;;;22.30;53.06;100971.97;146609;582;46016;-74
2021/09/28 03:50:29;;;;;;;;;14.00;11.25;;;;;22.26;52.71;100968.41;146614;647;46008;-75
2021/09/28 03:53:03;;;;;;;;;15.75;15.00;;;;;22.25;52.76;100971.06;146610;573;46016;-75
2021/09/28 03:55:37;;;;;;;;;12.50;12.50;;;;;22.28;53.07;100981.66;146612;666;46008;-76
2021/09/28 03:58:12;;;;;;;;;16.00;15.25;;;;;22.28;53.79;100979.87;146610;608;46016;-76
2021/09/28 04:00:47;;;;;;;;;14.25;13.75;;;;;22.30;53.72;100988.69;146613;638;45036;-72
2021/09/28 04:03:20;;;;;;;;;14.50;14.00;;;;;22.30;54.49;100990.44;146608;563;46010;-73
2021/09/28 04:05:54;;;;;;;;;14.25;13.00;;;;;22.29;54.47;100996.63;146612;613;46010;-72
2021/09/28 04:08:28;;;;;;;;;14.00;13.75;;;;;22.24;55.11;101004.53;146609;588;46016;-75
2021/09/28 04:11:02;;;;;;;;;18.75;17.25;;;;;22.14;55.65;101010.53;146616;610;45020;-75
2021/09/28 04:13:36;;;;;;;;;17.50;15.00;;;;;22.00;55.32;101018.38;146609;588;46010;-74
2021/09/28 04:16:10;;;;;;;;;16.75;15.25;;;;;21.87;55.73;101011.22;146611;656;47010;-74
2021/09/28 04:18:45;;;;;;;;;20.75;15.50;;;;;21.76;55.16;101011.09;146610;628;46016;-74
2021/09/28 04:21:19;;;;;;;;;18.00;16.50;;;;;21.66;55.74;101011.88;146610;564;47010;-73
2021/09/28 04:23:54;;;;;;;;;21.25;19.50;;;;;21.61;56.09;101017.06;146610;633;46931;-74
2021/09/28 04:26:28;;;;;;;;;16.25;16.00;;;;;21.54;55.07;101015.25;146608;627;46020;-75
2021/09/28 04:29:02;;;;;;;;;19.25;17.25;;;;;21.49;56.06;101019.56;146612;631;46027;-75
2021/09/28 04:31:36;;;;;;;;;15.50;14.50;;;;;21.46;56.96;101019.53;146612;664;46020;-75
2021/09/28 04:34:09;;;;;;;;;20.25;19.00;;;;;21.38;57.35;101026.50;146610;604;46016;-76
2021/09/28 04:36:43;;;;;;;;;20.25;19.00;;;;;21.31;57.63;101021.97;146612;615;46020;-76
2021/09/28 04:39:17;;;;;;;;;16.50;15.50;;;;;21.26;56.45;101016.66;146609;588;47010;-72
2021/09/28 04:41:51;;;;;;;;;19.25;18.50;;;;;21.30;56.33;101022.84;146617;635;45020;-74
2021/09/28 04:44:25;;;;;;;;;20.25;17.75;;;;;21.33;55.97;101012.34;146611;566;46016;-73
2021/09/28 04:46:59;;;;;;;;;17.25;15.25;;;;;21.35;56.73;101016.78;146611;604;46010;-80
2021/09/28 04:49:33;;;;;;;;;17.25;15.75;;;;;21.19;56.39;100978.78;146602;657;47016;-81
2021/09/28 04:52:07;;;;;;;;;20.50;18.50;;;;;21.55;55.03;101040.75;146612;572;46020;-79
2021/09/28 04:54:41;;;;;;;;;18.25;17.75;;;;;21.66;55.83;101057.59;146610;569;46016;-78
2021/09/28 04:57:15;;;;;;;;;16.75;15.25;;;;;21.74;55.41;101052.41;146611;587;46010;-84
2021/09/28 04:59:49;;;;;;;;;15.75;13.75;;;;;21.82;55.74;101053.38;146609;657;46016;-77
2021/09/28 05:02:23;;;;;;;;;16.00;14.50;;;;;21.91;55.95;101057.87;146610;595;47008;-76
2021/09/28 05:04:58;;;;;;;;;18.00;17.25;;;;;22.06;54.76;101059.78;146611;597;46017;-73
2021/09/28 05:07:31;;;;;;;;;20.50;18.75;;;;;22.22;54.69;101061.72;146614;586;46020;-75
2021/09/28 05:10:05;;;;;;;;;18.50;17.00;;;;;22.25;55.46;101055.59;146608;569;46016;-74
2021/09/28 05:12:39;;;;;;;;;19.25;17.50;;;;;22.20;54.52;101049.38;146613;592;46021;-74
2021/09/28 05:15:13;;;;;;;;;21.75;19.50;;;;;21.48;54.46;100941.31;146610;680;47913;-73
2021/09/28 05:17:47;;;;;;;;;18.25;17.25;;;;;22.09;55.03;101050.13;146612;582;46010;-73
2021/09/28 05:20:21;;;;;;;;;19.75;17.50;;;;;22.08;54.55;101050.97;146611;635;46914;-74
2021/09/28 05:22:55;;;;;;;;;21.25;17.75;;;;;22.09;54.81;101049.25;146612;646;46020;-74
2021/09/28 05:25:30;;;;;;;;;17.50;16.50;;;;;22.21;55.05;101044.13;146609;660;46016;-74
2021/09/28 05:28:04;;;;;;;;;20.75;16.50;;;;;22.53;54.60;101043.47;146613;599;46021;-74
2021/09/28 05:30:38;;;;;;;;;21.75;19.75;;;;;22.95;54.04;101044.66;146610;578;46010;-75
2021/09/28 05:33:12;;;;;;;;;18.75;15.75;;;;;23.38;53.42;101050.16;146612;578;46020;-74
2021/09/28 05:35:46;;;;;;;;;19.25;16.25;;;;;23.77;52.24;101045.88;146610;572;46017;-74
2021/09/28 05:38:20;;;;;;;;;19.25;18.00;;;;;24.04;51.49;101056.53;146614;602;45020;-74
2021/09/28 05:40:53;;;;;;;;;18.25;17.00;;;;;24.19;50.86;101053.87;146631;614;45914;-74
2021/09/28 05:43:28;;;;;;;;;20.75;19.50;;;;;24.32;50.66;101051.25;146628;563;45029;-72
2021/09/28 05:46:02;;;;;;;;;17.50;17.00;;;;;24.39;49.37;101051.25;146632;580;45016;-75
2021/09/28 05:48:36;;;;;;;;;17.75;17.75;;;;;24.41;50.41;101045.94;146635;570;44050;-74
2021/09/28 05:51:23;;;;;;;;;19.00;16.50;;;;;24.51;49.22;101054.81;146631;731;46915;-74
2021/09/28 05:53:59;;;;;;;;;19.25;18.25;;;;;24.58;49.78;101052.16;146634;629;45008;-74
2021/09/28 05:56:33;;;;;;;;;18.25;16.25;;;;;24.75;49.71;101054.78;146630;566;45017;-74
2021/09/28 05:59:07;;;;;;;;;15.75;15.75;;;;;24.96;49.59;101058.28;146635;579;45020;-74
2021/09/28 06:01:41;;;;;;;;;19.50;19.00;;;;;25.19;48.91;101056.47;146633;613;45010;-75
2021/09/28 06:04:15;;;;;;;;;17.50;16.25;;;;;25.33;48.69;101059.94;146634;605;45021;-74
2021/09/28 06:06:49;;;;;;;;;19.00;17.50;;;;;25.42;48.36;101068.75;146630;569;45020;-74
2021/09/28 06:09:26;;;;;;;;;22.00;18.00;;;;;25.42;48.23;101068.75;146631;603;45020;-75
2021/09/28 06:12:00;;;;;;;;;13.75;13.75;;;;;25.41;48.66;101073.19;146632;636;45010;-75
2021/09/28 06:14:35;;;;;;;;;17.25;15.00;;;;;25.40;48.57;101079.38;146630;566;45020;-75
2021/09/28 06:17:08;;;;;;;;;16.50;15.50;;;;;25.44;48.92;101083.78;146631;564;46914;-75
2021/09/28 06:19:43;;;;;;;;;17.50;16.50;;;;;25.58;48.90;101081.97;146636;564;45021;-76
2021/09/28 06:22:17;;;;;;;;;15.25;13.25;;;;;25.78;49.05;101083.63;146630;644;45010;-74
2021/09/28 06:24:52;;;;;;;;;14.75;12.25;;;;;26.02;48.85;101093.25;146636;582;45908;-75
2021/09/28 06:27:29;;;;;;;;;12.50;12.50;;;;;26.29;48.84;101101.91;146634;589;45016;-76
2021/09/28 06:30:03;;;;;;;;;13.25;12.50;;;;;26.57;48.66;101097.28;146636;564;45008;-75
2021/09/28 06:32:37;;;;;;;;;9.75;9.00;;;;;26.79;48.67;101090.00;146632;564;45017;-74
2021/09/28 06:35:12;;;;;;;;;10.50;10.50;;;;;26.96;47.96;101085.41;146634;577;45008;-75
2021/09/28 06:37:46;;;;;;;;;11.25;10.50;;;;;27.18;47.58;101102.91;146633;573;45016;-74
2021/09/28 06:40:19;;;;;;;;;12.75;12.25;;;;;27.36;47.78;101095.63;146617;565;46021;-74
2021/09/28 06:42:53;;;;;;;;;13.75;12.75;;;;;27.49;47.83;101097.22;146610;597;46010;-74
2021/09/28 06:45:27;;;;;;;;;11.25;11.00;;;;;27.59;47.43;101104.19;146617;564;46020;-74
2021/09/28 06:48:01;;;;;;;;;12.75;12.75;;;;;27.64;47.83;101107.69;146614;654;46010;-75
2021/09/28 06:50:35;;;;;;;;;16.00;13.00;;;;;27.72;47.43;101110.22;146617;656;45021;-74
2021/09/28 06:53:09;;;;;;;;;14.50;12.75;;;;;27.80;46.96;101112.84;146608;630;46016;-74
2021/09/28 06:55:43;;;;;;;;;13.50;12.25;;;;;27.79;46.90;101117.31;146611;589;46021;-75
2021/09/28 06:58:17;;;;;;;;;13.00;12.50;;;;;27.66;46.91;101110.31;146610;680;46913;-74
2021/09/28 07:00:51;;;;;;;;;14.50;13.50;;;;;27.58;47.65;101109.56;146608;602;46020;-74
2021/09/28 07:03:25;;;;;;;;;17.25;14.75;;;;;27.59;47.21;101112.19;146604;601;47018;-74
2021/09/28 07:05:59;;;;;;;;;12.00;12.00;;;;;27.66;47.60;101114.75;146614;569;46020;-74
2021/09/28 07:08:33;;;;;;;;;16.50;14.75;;;;;27.71;47.17;101115.59;146610;581;46010;-74
2021/09/28 07:11:07;;;;;;;;;14.00;12.25;;;;;27.74;47.13;101119.09;146614;585;46020;-74
2021/09/28 07:13:41;;;;;;;;;12.00;12.00;;;;;27.77;46.89;101123.50;146611;579;46016;-74
2021/09/28 07:16:15;;;;;;;;;16.75;11.75;;;;;27.77;47.67;101124.41;146613;587;46026;-74
2021/09/28 07:18:49;;;;;;;;;13.50;13.00;;;;;27.82;47.22;101129.69;146611;567;47011;-74
2021/09/28 07:21:23;;;;;;;;;11.50;11.00;;;;;27.89;46.92;101125.16;146613;606;46020;-74
2021/09/28 07:23:57;;;;;;;;;11.00;11.00;;;;;27.86;46.74;101120.75;146614;571;45020;-74
2021/09/28 07:26:31;;;;;;;;;12.50;11.00;;;;;27.80;47.59;101118.19;146615;580;45021;-73
2021/09/28 07:29:05;;;;;;;;;11.00;10.00;;;;;27.74;46.80;101121.75;146611;573;46016;-73
2021/09/28 07:31:39;;;;;;;;;10.25;10.00;;;;;27.72;46.61;101115.56;146611;607;46010;-74
2021/09/28 07:34:13;;;;;;;;;9.50;9.50;;;;;27.73;46.98;101113.81;146611;632;46010;-73
2021/09/28 07:36:47;;;;;;;;;10.00;8.75;;;;;27.71;46.23;101111.16;146619;571;46020;-73
2021/09/28 07:39:20;;;;;;;;;12.00;11.00;;;;;27.67;46.32;101120.09;146616;585;46017;-74
2021/09/28 07:41:54;;;;;;;;;11.75;9.25;;;;;27.65;46.26;101113.88;146614;687;46021;-74
2021/09/28 07:44:28;;;;;;;;;9.00;9.00;;;;;27.65;46.29;101111.22;146619;589;46016;-74
2021/09/28 07:47:02;;;;;;;;;11.50;10.25;;;;;27.66;45.70;101110.31;146618;599;46009;-74
2021/09/28 07:49:36;;;;;;;;;14.00;11.50;;;;;27.68;45.63;101115.63;146611;563;46010;-73
2021/09/28 07:52:10;;;;;;;;;12.00;10.00;;;;;27.78;45.88;101117.31;146612;649;46020;-73
2021/09/28 07:54:44;;;;;;;;;10.50;10.50;;;;;27.89;45.16;101115.37;146608;601;46017;-73
2021/09/28 07:57:18;;;;;;;;;11.50;10.50;;;;;27.91;44.93;101102.91;146613;702;46020;-74
2021/09/28 07:59:54;;;;;;;;;12.25;11.25;;;;;27.98;45.29;101109.94;146611;621;46016;-73
2021/09/28 08:02:29;;;;;;;;;11.50;11.50;;;;;28.12;44.49;101116.81;146614;604;46010;-73
2021/09/28 08:05:03;;;;;;;;;8.50;8.50;;;;;28.21;44.14;101114.03;146609;675;46016;-74
2021/09/28 08:07:40;;;;;;;;;12.75;11.50;;;;;28.27;44.32;101121.94;146622;576;46020;-73
2021/09/28 08:10:17;;;;;;;;;10.00;10.00;;;;;28.33;43.72;101129.84;146609;573;47914;-72
2021/09/28 08:12:51;;;;;;;;;10.75;10.00;;;;;28.45;43.43;101131.47;146614;616;46020;-73
2021/09/28 08:15:24;;;;;;;;;13.00;11.00;;;;;28.59;43.27;101132.09;146611;617;46016;-74
2021/09/28 08:17:58;;;;;;;;;10.50;9.75;;;;;28.70;42.36;101129.28;146612;679;46021;-73
2021/09/28 08:20:32;;;;;;;;;10.25;10.25;;;;;28.77;42.20;101114.91;146619;585;45914;-74
2021/09/28 08:23:06;;;;;;;;;11.25;10.00;;;;;28.80;42.02;101125.53;146612;609;47008;-74
2021/09/28 08:26:01;;;;;;;;;12.25;11.00;;;;;28.84;41.79;101121.00;146609;577;46016;-72
2021/09/28 08:31:27;;;;;;;;;10.00;10.00;;;;;28.87;40.83;101123.62;146620;621;46016;-73
2021/09/28 08:34:01;;;;;;;;;8.75;8.75;;;;;28.82;41.80;101107.69;146615;595;46020;-74
2021/09/28 08:36:36;;;;;;;;;10.75;10.25;;;;;28.77;41.17;101117.56;146616;635;46016;-74
2021/09/28 08:39:13;;;;;;;;;7.25;7.25;;;;;28.68;41.01;101129.28;146613;575;46021;-74
2021/09/28 08:41:53;;;;;;;;;8.00;7.25;;;;;28.62;42.26;101121.37;146614;579;46016;-73
2021/09/28 08:44:27;;;;;;;;;10.50;9.75;;;;;28.50;41.18;101126.91;146616;677;46010;-74
2021/09/28 08:47:01;;;;;;;;;9.75;9.25;;;;;28.47;40.70;101127.84;146616;569;46016;-74
2021/09/28 08:49:35;;;;;;;;;7.00;7.00;;;;;28.51;41.35;101123.38;146620;672;46022;-75
2021/09/28 08:52:10;;;;;;;;;12.50;11.50;;;;;28.52;41.57;101118.00;146614;656;47914;-74
2021/09/28 08:54:44;;;;;;;;;13.50;12.00;;;;;28.49;41.81;101122.50;146613;700;46021;-73
2021/09/28 08:57:19;;;;;;;;;8.75;7.00;;;;;28.43;40.97;101119.94;146611;637;46010;-73
2021/09/28 08:59:54;;;;;;;;;11.25;9.75;;;;;28.45;42.10;101119.00;146618;614;46020;-74
2021/09/28 09:02:47;;;;;;;;;7.00;7.00;;;;;28.44;42.08;101108.34;146617;576;46016;-73
2021/09/28 09:05:25;;;;;;;;;10.25;9.25;;;;;28.41;41.84;101117.31;146620;649;47010;-74
2021/09/28 09:08:10;;;;;;;;;9.75;9.75;;;;;28.41;41.92;101101.31;146619;635;46010;-73
2021/09/28 09:10:45;;;;;;;;;11.75;10.75;;;;;28.45;42.04;101113.66;146618;625;46020;-74
2021/09/28 09:13:39;;;;;;;;;11.75;11.75;;;;;28.47;41.52;101100.28;146608;584;47914;-74
2021/09/28 09:16:14;;;;;;;;;10.00;8.75;;;;;28.42;40.31;101112.84;146613;685;46025;-75
2021/09/28 09:19:12;;;;;;;;;14.25;10.00;;;;;28.40;41.41;101102.19;146615;581;48020;-73
2021/09/28 09:22:06;;;;;;;;;12.25;11.00;;;;;27.51;40.91;100937.38;146615;692;45020;-74
2021/09/28 09:24:56;;;;;;;;;10.00;10.00;;;;;28.56;40.87;101113.47;146611;628;47916;-75
2021/09/28 09:27:36;;;;;;;;;10.75;9.00;;;;;28.62;40.92;101115.16;146612;628;46008;-75
2021/09/28 09:30:19;;;;;;;;;10.75;10.25;;;;;28.73;40.72;101099.88;146616;619;47010;-74
2021/09/28 09:33:00;;;;;;;;;11.25;9.50;;;;;28.70;41.20;101092.78;146613;575;47011;-75
2021/09/28 09:35:38;;;;;;;;;11.25;9.75;;;;;28.67;40.86;101114.19;146619;618;46010;-74
2021/09/28 09:38:15;;;;;;;;;7.50;6.00;;;;;28.69;40.28;101100.81;146613;657;45021;-74
2021/09/28 09:40:52;;;;;;;;;10.25;8.25;;;;;28.69;40.45;101096.38;146615;679;46016;-75
2021/09/28 09:43:37;;;;;;;;;9.25;8.25;;;;;28.70;40.51;101097.25;146619;599;46020;-73
2021/09/28 09:46:22;;;;;;;;;7.50;7.50;;;;;28.69;40.56;101095.47;146619;570;46032;-74
2021/09/28 09:48:56;;;;;;;;;9.00;9.00;;;;;28.69;41.15;101098.13;146620;564;47008;-74
2021/09/28 09:51:42;;;;;;;;;13.00;11.00;;;;;28.72;40.07;101095.41;146617;577;46914;-74
2021/09/28 09:54:17;;;;;;;;;8.25;7.00;;;;;28.72;39.36;101087.41;146614;606;46021;-74
2021/09/28 09:56:56;;;;;;;;;11.75;11.00;;;;;28.69;40.46;101093.69;146618;599;46016;-74
2021/09/28 09:59:30;;;;;;;;;11.50;10.75;;;;;28.71;40.61;101099.00;146616;653;46010;-75
2021/09/28 10:02:04;;;;;;;;;12.00;9.25;;;;;28.71;40.71;101089.19;146612;599;46010;-74
2021/09/28 10:05:11;;;;;;;;;11.25;10.75;;;;;28.68;40.96;101099.94;146612;637;46008;-74
2021/09/28 10:08:03;;;;;;;;;11.50;11.00;;;;;28.68;39.24;101088.37;146611;577;45916;-74
2021/09/28 10:10:37;;;;;;;;;12.25;9.25;;;;;28.76;40.39;101091.81;146612;620;46008;-74
2021/09/28 10:13:11;;;;;;;;;10.00;9.25;;;;;28.81;40.23;101081.91;146616;564;46016;-75
2021/09/28 10:15:45;;;;;;;;;7.50;7.50;;;;;28.91;39.90;101088.84;146618;703;46021;-75
2021/09/28 10:18:42;;;;;;;;;8.50;8.50;;;;;28.55;40.86;101015.69;146615;563;46914;-74
2021/09/28 10:21:46;;;;;;;;;12.00;11.00;;;;;28.01;41.13;100907.31;146621;565;47008;-75
2021/09/28 10:24:33;;;;;;;;;12.00;10.00;;;;;29.10;39.73;101100.09;146609;622;46010;-73
2021/09/28 10:27:32;;;;;;;;;7.75;7.75;;;;;29.20;40.30;101090.97;146614;681;46020;-74
2021/09/28 10:30:08;;;;;;;;;12.50;11.50;;;;;29.23;40.11;101093.59;146618;578;46011;-74
2021/09/28 10:32:51;;;;;;;;;9.50;9.50;;;;;29.24;39.93;101091.78;146613;580;46008;-74
2021/09/28 10:35:26;;;;;;;;;11.00;9.00;;;;;29.19;38.84;101086.56;146615;570;46016;-74
2021/09/28 10:38:08;;;;;;;;;11.00;11.00;;;;;29.18;38.94;101105.25;146620;684;46021;-74
2021/09/28 10:40:53;;;;;;;;;12.50;11.50;;;;;29.10;39.73;101091.19;146611;642;46016;-74
2021/09/28 10:43:33;;;;;;;;;12.25;11.50;;;;;29.13;39.24;101099.13;146614;641;46020;-74
2021/09/28 10:46:07;;;;;;;;;11.75;10.00;;;;;29.17;39.50;101083.03;146611;582;46017;-74
2021/09/28 10:48:42;;;;;;;;;14.50;11.00;;;;;29.19;39.49;101096.34;146615;684;46020;-75
2021/09/28 10:51:25;;;;;;;;;11.75;11.00;;;;;29.23;39.64;101090.91;146609;569;46016;-75
2021/09/28 10:54:09;;;;;;;;;11.50;10.75;;;;;29.27;38.48;101098.88;146613;664;46011;-74
2021/09/28 10:56:54;;;;;;;;;9.25;8.75;;;;;29.23;39.83;101092.72;146605;663;46018;-73
2021/09/28 11:00:03;;;;;;;;;11.00;9.75;;;;;29.08;39.86;101087.66;146616;607;46020;-77
2021/09/28 11:02:58;;;;;;;;;10.00;10.00;;;;;28.93;41.29;101079.00;146617;623;46016;-82
2021/09/28 11:05:43;;;;;;;;;12.75;10.00;;;;;28.87;40.74;101087.13;146613;569;47010;-81
2021/09/28 11:08:23;;;;;;;;;11.75;10.50;;;;;28.75;40.73;101069.56;146610;663;46011;-85
2021/09/28 11:11:03;;;;;;;;;8.50;8.50;;;;;28.99;40.38;101078.88;146613;588;46008;-78
2021/09/28 11:13:48;;;;;;;;;9.50;8.00;;;;;29.07;40.22;101086.78;146616;647;46016;-80
2021/09/28 11:16:24;;;;;;;;;11.25;9.00;;;;;29.07;40.30;101077.91;146620;567;46008;-80
2021/09/28 11:19:02;;;;;;;;;8.25;8.00;;;;;28.96;41.20;101088.75;146615;676;47010;-81
2021/09/28 11:21:46;;;;;;;;;11.00;10.00;;;;;28.91;40.89;101086.19;146619;590;46022;-76
2021/09/28 11:24:30;;;;;;;;;9.50;9.50;;;;;28.90;40.54;101080.84;146611;584;46010;-79
2021/09/28 11:27:12;;;;;;;;;9.00;9.00;;;;;28.89;40.57;101081.78;146616;596;46010;-80
2021/09/28 11:29:46;;;;;;;;;10.00;8.25;;;;;28.84;40.84;101084.50;146615;565;46016;-79
2021/09/28 11:32:20;;;;;;;;;11.50;11.00;;;;;28.74;39.62;101086.47;146619;635;46010;-77
2021/09/28 11:34:54;;;;;;;;;7.00;7.00;;;;;28.66;39.67;101083.09;146610;683;46010;-82
2021/09/28 11:37:28;;;;;;;;;6.25;4.50;;;;;28.72;40.19;101082.06;146620;663;46010;-83
2021/09/28 11:40:02;;;;;;;;;9.50;7.25;;;;;28.72;39.50;101085.66;146617;730;46030;-81
2021/09/28 11:42:36;;;;;;;;;10.75;10.25;;;;;28.78;40.13;101087.28;146622;691;46020;-80
2021/09/28 11:45:11;;;;;;;;;7.75;6.25;;;;;28.80;39.70;101084.63;146610;721;47010;-83
2021/09/28 11:47:46;;;;;;;;;10.50;10.50;;;;;28.84;40.34;101073.84;146621;635;45022;-83
2021/09/28 11:50:26;;;;;;;;;10.75;10.75;;;;;28.82;39.90;101059.66;146610;576;47010;-84
2021/09/28 11:53:09;;;;;;;;;6.00;6.00;;;;;28.88;40.26;101067.56;146613;576;46008;-81
2021/09/28 11:55:43;;;;;;;;;7.75;7.75;;;;;28.92;40.47;101061.25;146620;624;46016;-81